Time;durP1;ratioP1;P1;durP2;ratioP2;P2;SDS_P1;SDS_P2;PMS_P1;PMS_P2;Temp;Humidity;BMP_temperature;BMP_pressure;BME280_temperature;BME280_humidity;BME280_pressure;Samples;Min_cycle;Max_cycle;Signal;HPM_P1;HPM_P2
2022/09/23 00:01:26;;;;;;;14.10;8.73;;;;;;;12.59;100.00;100301.80;1704503;82;21546;-70
2022/09/23 00:03:53;;;;;;;13.90;8.50;;;;;;;12.57;100.00;100295.88;1694851;83;21023;-70
2022/09/23 00:06:23;;;;;;;12.18;8.28;;;;;;;12.58;100.00;100296.27;1709664;83;21094;-70
2022/09/23 00:08:52;;;;;;;14.58;9.33;;;;;;;12.56;100.00;100291.19;1686884;83;21038;-69
2022/09/23 00:11:26;;;;;;;13.98;8.25;;;;;;;12.52;100.00;100290.98;1680125;84;21118;-69
2022/09/23 00:13:56;;;;;;;11.88;8.93;;;;;;;12.47;100.00;100290.42;1710946;81;21599;-69
2022/09/23 00:16:29;;;;;;;10.72;8.28;;;;;;;12.45;100.00;100281.94;1718461;83;21044;-70
2022/09/23 00:18:57;;;;;;;12.95;8.15;;;;;;;12.46;100.00;100282.29;1708740;82;21079;-70
2022/09/23 00:21:24;;;;;;;12.37;8.15;;;;;;;12.48;100.00;100281.75;1721334;83;21614;-70
2022/09/23 00:23:51;;;;;;;12.55;8.25;;;;;;;12.46;100.00;100277.13;1711429;83;21076;-70
2022/09/23 00:26:21;;;;;;;11.97;8.10;;;;;;;12.52;100.00;100283.70;1710578;83;21055;-69
2022/09/23 00:28:50;;;;;;;14.55;8.05;;;;;;;12.53;100.00;100275.88;1699129;82;21689;-69
2022/09/23 00:31:23;;;;;;;13.03;8.28;;;;;;;12.53;100.00;100286.21;1723675;82;21003;-70
2022/09/23 00:34:01;;;;;;;12.27;8.47;;;;;;;12.56;100.00;100280.86;1702456;83;21110;-70
2022/09/23 00:36:31;;;;;;;12.05;8.33;;;;;;;12.56;100.00;100278.75;1719048;82;21764;-70
2022/09/23 00:38:58;;;;;;;12.85;8.20;;;;;;;12.54;100.00;100273.66;1718563;81;21019;-70
2022/09/23 00:41:26;;;;;;;13.62;8.63;;;;;;;12.52;100.00;100272.09;1724543;82;21074;-70
2022/09/23 00:43:59;;;;;;;16.35;8.83;;;;;;;12.44;100.00;100268.64;1701611;82;21090;-70
2022/09/23 00:46:34;;;;;;;14.73;8.33;;;;;;;12.38;100.00;100265.93;1717484;82;22199;-70
2022/09/23 00:49:21;;;;;;;14.13;8.58;;;;;;;12.35;100.00;100267.87;1719210;82;21142;-69
2022/09/23 00:51:53;;;;;;;11.28;8.38;;;;;;;12.31;100.00;100261.22;1702328;83;21098;-70
2022/09/23 00:54:23;;;;;;;12.05;8.48;;;;;;;12.21;100.00;100256.55;1720103;81;21090;-70
2022/09/23 00:56:50;;;;;;;12.45;7.92;;;;;;;12.17;100.00;100247.31;1722093;81;21014;-70
2022/09/23 00:59:16;;;;;;;11.10;8.13;;;;;;;12.18;100.00;100256.70;1717758;82;21063;-70
2022/09/23 01:01:45;;;;;;;14.33;7.58;;;;;;;12.19;100.00;100242.89;1717413;82;21114;-69
2022/09/23 01:04:13;;;;;;;10.40;7.80;;;;;;;12.24;100.00;100250.37;1714037;83;21511;-69
2022/09/23 01:06:40;;;;;;;15.88;8.03;;;;;;;12.23;100.00;100245.69;1715124;83;21542;-70
2022/09/23 01:09:08;;;;;;;11.08;7.90;;;;;;;12.24;100.00;100246.50;1723846;81;21019;-71
2022/09/23 01:12:25;;;;;;;12.47;8.03;;;;;;;12.17;100.00;100237.45;1697351;83;21562;-70
2022/09/23 01:15:15;;;;;;;12.37;8.25;;;;;;;12.14;100.00;100238.90;1708065;83;21544;-70
2022/09/23 01:17:58;;;;;;;12.68;8.28;;;;;;;12.14;100.00;100231.98;1707275;83;21042;-70
2022/09/23 01:20:42;;;;;;;9.35;7.60;;;;;;;12.14;100.00;100232.45;1715477;83;21046;-69
2022/09/23 01:23:25;;;;;;;11.00;8.05;;;;;;;12.09;100.00;100235.76;1709280;83;21126;-70
2022/09/23 01:26:30;;;;;;;10.65;7.72;;;;;;;12.03;100.00;100240.32;1689525;83;21070;-69
2022/09/23 01:29:22;;;;;;;11.30;7.80;;;;;;;11.97;100.00;100242.41;1716697;83;21141;-70
2022/09/23 01:32:13;;;;;;;11.43;8.13;;;;;;;11.87;100.00;100239.45;1720870;82;21556;-70
2022/09/23 01:35:06;;;;;;;11.03;7.95;;;;;;;11.85;100.00;100232.26;1707499;82;21571;-70
2022/09/23 01:37:53;;;;;;;;;;;;;;;11.83;100.00;100234.09;1725386;82;21078;-71
2022/09/23 01:40:42;;;;;;;11.73;8.43;;;;;;;11.83;100.00;100232.80;1710124;82;20166;-70
2022/09/23 01:43:17;;;;;;;12.05;8.63;;;;;;;11.80;100.00;100236.81;1706024;83;21109;-70
2022/09/23 01:45:47;;;;;;;11.33;7.53;;;;;;;11.77;100.00;100246.02;1707553;82;21062;-70
2022/09/23 01:48:45;;;;;;;11.78;7.72;;;;;;;11.74;100.00;100234.13;1701075;83;20999;-71
2022/09/23 01:51:17;;;;;;;10.75;7.87;;;;;;;11.78;100.00;100240.79;1703308;82;21067;-70
2022/09/23 01:54:07;;;;;;;12.33;7.95;;;;;;;11.77;100.00;100244.73;1698171;82;21133;-70
2022/09/23 01:56:42;;;;;;;8.85;6.92;;;;;;;11.79;100.00;100250.17;1693662;83;21578;-70
2022/09/23 01:59:27;;;;;;;12.73;8.03;;;;;;;11.82;100.00;100245.33;1709621;82;21054;-70
2022/09/23 02:02:10;;;;;;;12.45;7.78;;;;;;;11.87;100.00;100248.95;1711085;81;21052;-70
2022/09/23 02:04:50;;;;;;;11.10;8.13;;;;;;;11.86;100.00;100246.83;1712260;82;21525;-69
2022/09/23 02:07:24;;;;;;;9.80;7.78;;;;;;;11.89;100.00;100244.11;1706164;83;21047;-70
2022/09/23 02:10:18;;;;;;;11.85;8.08;;;;;;;11.93;100.00;100237.05;1702208;81;21091;-70
2022/09/23 02:12:48;;;;;;;10.20;7.85;;;;;;;11.92;100.00;100228.48;1707961;82;21031;-70
2022/09/23 02:15:21;;;;;;;10.88;8.05;;;;;;;11.87;100.00;100233.01;1716550;83;21075;-70
2022/09/23 02:17:57;;;;;;;10.13;7.78;;;;;;;11.83;100.00;100231.51;1704325;83;21052;-70
2022/09/23 02:20:29;;;;;;;9.80;7.60;;;;;;;11.77;100.00;100227.50;1721723;82;21522;-70
2022/09/23 02:23:12;;;;;;;9.93;7.60;;;;;;;11.75;100.00;100219.48;1704890;82;21015;-70
2022/09/23 02:26:03;;;;;;;10.50;7.70;;;;;;;11.71;100.00;100219.27;1707610;82;21038;-69
2022/09/23 02:29:07;;;;;;;10.23;7.78;;;;;;;11.77;100.00;100221.06;1702132;83;21073;-70
2022/09/23 02:31:52;;;;;;;11.33;7.75;;;;;;;11.77;100.00;100225.39;1713762;82;21030;-70
2022/09/23 02:34:45;;;;;;;10.45;7.75;;;;;;;11.79;100.00;100232.59;1693295;83;21105;-70
2022/09/23 02:37:21;;;;;;;11.05;7.85;;;;;;;11.82;100.00;100235.02;1699668;83;21201;-70
2022/09/23 02:40:02;;;;;;;9.70;7.72;;;;;;;11.80;100.00;100238.10;1718878;83;21047;-70
2022/09/23 02:42:37;;;;;;;10.00;7.53;;;;;;;11.82;100.00;100231.97;1713419;83;21075;-70
2022/09/23 02:45:05;;;;;;;10.70;7.72;;;;;;;11.84;100.00;100228.03;1703044;83;21095;-70
2022/09/23 02:47:38;;;;;;;10.40;7.92;;;;;;;11.83;100.00;100235.38;1711484;83;21601;-69
2022/09/23 02:50:08;;;;;;;10.13;7.95;;;;;;;11.83;100.00;100230.22;1703910;83;21603;-70
2022/09/23 02:52:37;;;;;;;11.50;7.75;;;;;;;11.81;100.00;100230.76;1710955;83;21047;-70
2022/09/23 02:55:07;;;;;;;10.20;7.62;;;;;;;11.78;100.00;100224.02;1683005;83;21082;-70
2022/09/23 02:57:35;;;;;;;9.08;7.25;;;;;;;11.72;100.00;100214.47;1708212;83;21058;-70
2022/09/23 03:00:04;;;;;;;12.50;8.13;;;;;;;11.67;100.00;100221.17;1716266;83;21575;-70
2022/09/23 03:03:00;;;;;;;10.30;8.03;;;;;;;11.64;100.00;100216.20;1718387;83;21550;-70
2022/09/23 03:05:31;;;;;;;10.93;8.43;;;;;;;11.67;100.00;100208.75;1709237;83;21604;-70
2022/09/23 03:08:22;;;;;;;11.83;8.28;;;;;;;11.65;100.00;100206.25;1685528;83;21045;-70
2022/09/23 03:11:05;;;;;;;12.50;8.93;;;;;;;11.62;100.00;100205.95;1707461;83;21039;-70
2022/09/23 03:14:15;;;;;;;12.13;8.80;;;;;;;11.60;100.00;100203.09;1709973;83;21058;-69
2022/09/23 03:16:55;;;;;;;10.70;8.28;;;;;;;11.63;100.00;100208.89;1709574;83;21078;-70
2022/09/23 03:19:28;;;;;;;;;;;;;;;11.67;100.00;100196.68;1705568;83;21094;-70
2022/09/23 03:22:22;;;;;;;12.35;8.55;;;;;;;11.69;100.00;100204.34;1699350;83;20110;-69
2022/09/23 03:24:50;;;;;;;;;;;;;;;11.65;100.00;100204.13;1706391;83;21073;-69
2022/09/23 03:27:24;;;;;;;12.58;8.88;;;;;;;11.60;100.00;100210.83;1708979;83;20405;-70
2022/09/23 03:29:54;;;;;;;13.60;8.75;;;;;;;11.64;100.00;100208.46;1704835;83;21050;-70
2022/09/23 03:32:25;;;;;;;11.70;8.35;;;;;;;11.65;100.00;100212.69;1696354;83;22797;-70
2022/09/23 03:34:56;;;;;;;12.47;9.15;;;;;;;11.69;100.00;100219.34;1710586;83;21070;-70
2022/09/23 03:37:40;;;;;;;14.58;9.35;;;;;;;11.72;100.00;100215.77;1700887;83;21042;-71
2022/09/23 03:40:28;;;;;;;14.65;9.00;;;;;;;11.78;100.00;100228.33;1712199;83;21114;-71
2022/09/23 03:42:57;;;;;;;10.58;7.87;;;;;;;11.79;100.00;100234.70;1707786;83;21015;-71
2022/09/23 03:45:29;;;;;;;10.30;7.87;;;;;;;11.84;100.00;100242.22;1705678;83;21067;-70
2022/09/23 03:47:56;;;;;;;10.48;8.20;;;;;;;11.87;100.00;100248.48;1715470;83;21016;-71
2022/09/23 03:50:23;;;;;;;10.60;7.47;;;;;;;11.90;100.00;100252.23;1705526;83;21094;-70
2022/09/23 03:52:50;;;;;;;9.68;7.70;;;;;;;11.92;100.00;100254.70;1695687;83;21487;-70
2022/09/23 03:55:18;;;;;;;10.13;7.85;;;;;;;11.94;100.00;100258.03;1712790;83;21519;-70
2022/09/23 03:57:46;;;;;;;9.30;7.28;;;;;;;11.95;100.00;100267.45;1703438;82;21035;-70
2022/09/23 04:00:14;;;;;;;10.95;7.75;;;;;;;11.92;100.00;100270.18;1715512;83;21067;-70
2022/09/23 04:02:43;;;;;;;11.20;8.05;;;;;;;11.94;100.00;100270.93;1707015;83;21555;-70
2022/09/23 04:05:12;;;;;;;9.20;8.03;;;;;;;11.98;100.00;100274.58;1709872;82;20972;-70
2022/09/23 04:07:41;;;;;;;10.93;7.67;;;;;;;12.03;100.00;100273.86;1701750;83;21005;-70
2022/09/23 04:10:09;;;;;;;13.03;8.45;;;;;;;12.10;100.00;100269.66;1703269;83;21085;-70
2022/09/23 04:12:37;;;;;;;10.40;7.72;;;;;;;12.12;100.00;100265.24;1696452;83;20996;-70
2022/09/23 04:15:06;;;;;;;10.65;7.50;;;;;;;12.12;100.00;100255.75;1707926;83;21039;-70
2022/09/23 04:17:33;;;;;;;12.58;7.90;;;;;;;12.08;100.00;100245.69;1714689;83;21088;-70
2022/09/23 04:20:00;;;;;;;12.85;8.63;;;;;;;12.08;100.00;100245.22;1684786;85;21543;-69
2022/09/23 04:22:27;;;;;;;13.65;9.40;;;;;;;12.12;100.00;100240.73;1676891;84;21116;-70
2022/09/23 04:24:55;;;;;;;12.23;8.15;;;;;;;12.08;100.00;100241.34;1710391;83;21091;-70
2022/09/23 04:27:22;;;;;;;11.05;8.20;;;;;;;12.14;100.00;100254.37;1705477;83;21059;-70
2022/09/23 04:29:49;;;;;;;11.22;7.85;;;;;;;12.18;100.00;100257.98;1704759;83;21052;-70
2022/09/23 04:32:16;;;;;;;11.35;7.92;;;;;;;12.19;100.00;100270.46;1702229;83;21103;-70
2022/09/23 04:34:43;;;;;;;15.68;8.85;;;;;;;12.19;100.00;100273.04;1704855;83;21070;-70
2022/09/23 04:37:10;;;;;;;15.30;8.75;;;;;;;12.25;100.00;100274.42;1700327;82;21540;-69
2022/09/23 04:39:37;;;;;;;14.35;9.20;;;;;;;12.30;100.00;100271.98;1693088;83;21054;-70
2022/09/23 04:42:04;;;;;;;13.20;9.28;;;;;;;12.35;100.00;100271.75;1712174;82;21062;-69
2022/09/23 04:44:31;;;;;;;13.05;8.40;;;;;;;12.31;100.00;100273.66;1704054;83;21111;-69
2022/09/23 04:46:58;;;;;;;12.03;7.85;;;;;;;12.28;100.00;100266.06;1705571;83;21211;-70
2022/09/23 04:49:25;;;;;;;11.97;8.33;;;;;;;12.29;100.00;100260.00;1705605;83;21158;-70
2022/09/23 04:51:53;;;;;;;10.05;7.33;;;;;;;12.31;100.00;100259.92;1708420;83;21023;-70
2022/09/23 04:54:19;;;;;;;13.13;7.70;;;;;;;12.33;100.00;100257.63;1702194;83;21133;-69
2022/09/23 04:56:46;;;;;;;7.85;6.78;;;;;;;12.43;100.00;100260.53;1700718;83;21110;-69
2022/09/23 04:59:14;;;;;;;10.35;6.67;;;;;;;12.46;100.00;100265.98;1701719;82;21051;-70
2022/09/23 05:01:41;;;;;;;7.58;6.30;;;;;;;12.55;100.00;100272.75;1701074;83;20981;-69
2022/09/23 05:04:12;;;;;;;7.55;6.12;;;;;;;12.74;100.00;100276.88;1711451;83;21070;-70
2022/09/23 05:06:41;;;;;;;9.98;6.53;;;;;;;12.85;100.00;100290.00;1691138;82;21031;-70
2022/09/23 05:09:09;;;;;;;8.38;6.25;;;;;;;13.09;100.00;100292.10;1713869;83;21321;-70
2022/09/23 05:11:36;;;;;;;9.83;6.20;;;;;;;13.17;100.00;100304.94;1705997;83;21448;-69
2022/09/23 05:14:03;;;;;;;7.95;6.03;;;;;;;13.42;100.00;100312.58;1695400;83;21064;-70
2022/09/23 05:16:30;;;;;;;8.28;6.30;;;;;;;13.39;100.00;100319.24;1709954;83;21516;-69
2022/09/23 05:18:58;;;;;;;7.33;5.95;;;;;;;13.37;100.00;100309.45;1704546;83;21019;-69
2022/09/23 05:21:27;;;;;;;9.53;5.85;;;;;;;13.42;100.00;100311.28;1700670;83;21284;-69
2022/09/23 05:23:57;;;;;;;7.60;5.80;;;;;;;13.58;100.00;100304.75;1710865;83;21500;-70
2022/09/23 05:26:27;;;;;;;7.95;5.83;;;;;;;13.66;100.00;100302.53;1696144;83;21015;-70
2022/09/23 05:28:56;;;;;;;6.83;6.05;;;;;;;13.62;100.00;100302.34;1698253;81;21034;-69
2022/09/23 05:31:26;;;;;;;7.70;6.12;;;;;;;13.65;100.00;100306.05;1697560;82;21090;-69
2022/09/23 05:33:56;;;;;;;7.35;5.90;;;;;;;13.64;100.00;100305.67;1703245;83;21070;-69
2022/09/23 05:36:26;;;;;;;7.45;6.08;;;;;;;13.74;100.00;100310.66;1709488;83;21067;-70
2022/09/23 05:38:55;;;;;;;8.00;6.05;;;;;;;13.77;100.00;100323.42;1703306;83;21036;-70
2022/09/23 05:41:23;;;;;;;7.87;5.90;;;;;;;13.77;100.00;100323.42;1711579;83;21511;-69
2022/09/23 05:43:53;;;;;;;7.83;5.90;;;;;;;13.80;100.00;100327.57;1695891;83;21628;-70
2022/09/23 05:46:25;;;;;;;8.35;5.87;;;;;;;13.87;100.00;100331.91;1703614;83;21042;-70
2022/09/23 05:48:52;;;;;;;9.98;5.75;;;;;;;13.89;100.00;100326.17;1704128;83;21036;-70
2022/09/23 05:51:22;;;;;;;8.68;5.85;;;;;;;14.03;100.00;100324.42;1709633;82;21012;-69
2022/09/23 05:53:57;;;;;;;7.12;5.42;;;;;;;13.93;100.00;100323.33;1703224;83;21531;-69
2022/09/23 05:56:26;;;;;;;9.43;6.20;;;;;;;14.07;100.00;100326.37;1684322;83;21051;-70
2022/09/23 05:58:56;;;;;;;7.92;5.65;;;;;;;14.00;100.00;100340.59;1687512;84;21571;-69
2022/09/23 06:01:27;;;;;;;7.05;5.92;;;;;;;14.20;100.00;100343.27;1716730;83;20960;-69
2022/09/23 06:03:57;;;;;;;7.17;5.40;;;;;;;14.34;100.00;100347.59;1707982;82;21074;-69
2022/09/23 06:06:31;;;;;;;8.58;5.40;;;;;;;14.49;100.00;100355.67;1698430;83;20995;-70
2022/09/23 06:09:00;;;;;;;7.25;4.90;;;;;;;14.59;100.00;100363.27;1709334;82;21011;-70
2022/09/23 06:11:30;;;;;;;7.90;4.65;;;;;;;14.41;100.00;100360.03;1701312;82;21002;-69
2022/09/23 06:14:01;;;;;;;7.03;4.90;;;;;;;14.52;100.00;100364.56;1706711;83;21172;-70
2022/09/23 06:16:33;;;;;;;6.17;4.50;;;;;;;14.70;100.00;100372.97;1697380;83;22196;-69
2022/09/23 06:19:04;;;;;;;5.28;4.58;;;;;;;14.74;100.00;100374.44;1713112;83;21937;-70
2022/09/23 06:21:31;;;;;;;5.10;4.28;;;;;;;14.90;100.00;100376.88;1701626;82;21084;-69
2022/09/23 06:24:05;;;;;;;5.33;4.60;;;;;;;14.92;100.00;100383.23;1712885;81;21007;-69
2022/09/23 06:26:35;;;;;;;5.65;4.60;;;;;;;14.94;100.00;100390.45;1709207;82;21431;-69
2022/09/23 06:29:06;;;;;;;5.70;4.00;;;;;;;14.99;100.00;100394.89;1691140;82;21004;-69
2022/09/23 06:31:33;;;;;;;4.22;3.83;;;;;;;14.97;100.00;100404.52;1711315;83;21046;-70
2022/09/23 06:34:00;;;;;;;6.05;3.90;;;;;;;15.22;100.00;100407.17;1708010;83;20992;-70
2022/09/23 06:36:27;;;;;;;5.00;3.72;;;;;;;15.24;100.00;100413.56;1693950;83;21078;-69
2022/09/23 06:38:54;;;;;;;5.67;4.08;;;;;;;15.39;100.00;100420.83;1689442;82;21044;-69
2022/09/23 06:41:21;;;;;;;5.95;4.60;;;;;;;15.57;100.00;100417.02;1699166;83;21007;-69
2022/09/23 06:43:50;;;;;;;6.37;4.62;;;;;;;15.74;100.00;100424.17;1709318;83;21059;-70
2022/09/23 06:46:17;;;;;;;6.15;4.22;;;;;;;15.71;100.00;100434.71;1713662;82;21043;-70
2022/09/23 06:48:44;;;;;;;5.70;4.47;;;;;;;15.95;100.00;100436.98;1700448;82;20987;-70
2022/09/23 06:51:20;;;;;;;4.92;3.83;;;;;;;15.99;100.00;100450.59;1701938;82;21054;-70
2022/09/23 06:53:48;;;;;;;5.85;3.90;;;;;;;16.22;100.00;100455.06;1707664;83;21098;-70
2022/09/23 06:56:18;;;;;;;7.40;4.10;;;;;;;16.48;100.00;100450.29;1706690;82;21469;-70
2022/09/23 06:58:45;;;;;;;6.33;4.08;;;;;;;16.53;100.00;100452.94;1708657;82;21468;-70
2022/09/23 07:01:15;;;;;;;6.58;3.90;;;;;;;16.47;100.00;100461.64;1711645;82;21098;-70
2022/09/23 07:03:47;;;;;;;5.55;4.20;;;;;;;16.57;100.00;100443.16;1699667;82;21271;-70
2022/09/23 07:06:14;;;;;;;5.17;4.28;;;;;;;16.68;100.00;100449.72;1714692;83;21071;-70
2022/09/23 07:08:45;;;;;;;6.05;4.20;;;;;;;16.91;100.00;100459.83;1710683;83;21492;-70
2022/09/23 07:11:12;;;;;;;7.50;4.40;;;;;;;17.31;100.00;100456.93;1671814;85;21505;-70
2022/09/23 07:13:41;;;;;;;6.05;4.25;;;;;;;17.41;100.00;100460.52;1695943;83;21135;-70
2022/09/23 07:16:10;;;;;;;4.70;3.95;;;;;;;17.42;100.00;100450.96;1706812;81;21051;-69
2022/09/23 07:18:38;;;;;;;7.00;3.80;;;;;;;16.71;100.00;100446.92;1717501;82;21094;-69
2022/09/23 07:21:15;;;;;;;8.40;4.90;;;;;;;16.88;100.00;100451.41;1721485;82;21534;-69
2022/09/23 07:23:48;;;;;;;4.22;3.70;;;;;;;16.98;100.00;100448.03;1693673;81;21070;-69
2022/09/23 07:26:16;;;;;;;4.70;3.15;;;;;;;17.08;100.00;100443.00;1708604;83;21122;-70
2022/09/23 07:28:44;;;;;;;4.25;3.27;;;;;;;16.99;100.00;100443.21;1720581;82;21105;-70
2022/09/23 07:31:17;;;;;;;3.87;2.90;;;;;;;16.52;100.00;100431.77;1696654;82;21082;-70
2022/09/23 07:33:44;;;;;;;3.55;2.60;;;;;;;16.51;100.00;100417.61;1707729;83;21102;-69
2022/09/23 07:36:17;;;;;;;3.60;3.30;;;;;;;16.58;100.00;100411.02;1716182;82;21119;-70
2022/09/23 07:38:46;;;;;;;3.80;2.70;;;;;;;16.40;100.00;100408.80;1720511;83;21074;-69
2022/09/23 07:41:16;;;;;;;3.15;2.85;;;;;;;16.48;100.00;100409.54;1702461;84;21047;-69
2022/09/23 07:43:45;;;;;;;3.62;2.90;;;;;;;16.53;100.00;100407.46;1695841;83;21036;-70
2022/09/23 07:46:17;;;;;;;3.83;3.10;;;;;;;16.60;100.00;100412.56;1703968;83;21082;-69
2022/09/23 07:48:46;;;;;;;4.10;3.20;;;;;;;16.52;100.00;100412.76;1707501;83;21002;-69
2022/09/23 07:51:24;;;;;;;3.60;3.25;;;;;;;16.76;100.00;100416.69;1714513;83;21587;-70
2022/09/23 07:53:53;;;;;;;5.05;3.50;;;;;;;16.58;100.00;100429.22;1671606;85;21015;-69
2022/09/23 07:56:27;;;;;;;4.25;3.85;;;;;;;16.73;100.00;100416.92;1664964;86;21001;-70
2022/09/23 07:59:02;;;;;;;4.25;3.55;;;;;;;16.84;100.00;100418.78;1664877;86;20977;-69
2022/09/23 08:01:40;;;;;;;3.37;3.08;;;;;;;17.05;100.00;100435.41;1665422;86;21103;-70
2022/09/23 08:04:12;;;;;;;4.03;2.87;;;;;;;17.11;100.00;100435.00;1664651;86;21080;-70
2022/09/23 08:06:46;;;;;;;4.37;3.00;;;;;;;16.97;100.00;100442.48;1659378;86;21085;-70
2022/09/23 08:09:15;;;;;;;3.27;2.98;;;;;;;17.29;100.00;100439.30;1666299;86;21731;-70
2022/09/23 08:11:41;;;;;;;5.28;2.77;;;;;;;17.14;100.00;100437.36;1665850;86;21705;-69
2022/09/23 08:14:14;;;;;;;3.47;3.15;;;;;;;17.30;100.00;100439.67;1665810;86;21084;-69
2022/09/23 08:16:43;;;;;;;3.08;2.77;;;;;;;17.45;100.00;100425.99;1665960;86;21057;-69
2022/09/23 08:19:11;;;;;;;3.80;2.80;;;;;;;17.51;100.00;100432.05;1666077;86;21068;-69
2022/09/23 08:21:39;;;;;;;3.90;2.62;;;;;;;17.63;100.00;100432.42;1664520;86;21088;-70
2022/09/23 08:24:12;;;;;;;4.30;2.77;;;;;;;17.46;100.00;100438.08;1657891;86;21095;-69
2022/09/23 08:26:39;;;;;;;3.10;2.72;;;;;;;17.55;100.00;100429.57;1657983;86;21107;-69
2022/09/23 08:29:11;;;;;;;4.30;2.72;;;;;;;17.47;100.00;100433.22;1657891;86;21111;-69
2022/09/23 08:31:38;;;;;;;3.95;2.80;;;;;;;17.66;100.00;100439.20;1657820;86;21151;-69
2022/09/23 08:34:05;;;;;;;2.60;2.40;;;;;;;17.63;100.00;100439.41;1657801;86;21623;-70
2022/09/23 08:36:33;;;;;;;3.90;2.70;;;;;;;17.80;100.00;100432.92;1657842;85;21111;-70
2022/09/23 08:39:00;;;;;;;2.47;2.27;;;;;;;17.99;100.00;100428.02;1658121;86;21063;-70
2022/09/23 08:41:49;;;;;;;3.25;2.00;;;;;;;17.94;98.23;100435.38;1661648;86;21228;-70
2022/09/23 08:44:35;;;;;;;2.27;2.08;;;;;;;17.85;99.17;100438.66;1698627;83;21587;-69
2022/09/23 08:47:23;;;;;;;3.20;2.10;;;;;;;18.00;97.30;100439.27;1699322;83;21075;-70
2022/09/23 08:50:11;;;;;;;2.00;1.90;;;;;;;17.93;99.84;100439.39;1702083;84;21074;-70
2022/09/23 08:52:57;;;;;;;3.95;2.42;;;;;;;17.45;100.00;100435.10;1701045;83;21106;-69
2022/09/23 08:55:44;;;;;;;2.98;2.50;;;;;;;17.50;100.00;100449.06;1710364;83;21082;-69
2022/09/23 08:58:47;;;;;;;2.40;2.20;;;;;;;17.29;100.00;100440.60;1713863;83;21075;-69
2022/09/23 09:01:34;;;;;;;3.08;2.40;;;;;;;17.30;100.00;100439.67;1700696;83;21129;-69
2022/09/23 09:04:18;;;;;;;4.80;2.50;;;;;;;17.75;100.00;100429.38;1712248;82;21031;-70
2022/09/23 09:07:09;;;;;;;3.02;2.55;;;;;;;18.20;96.71;100426.83;1713600;82;21570;-70
2022/09/23 09:09:50;;;;;;;5.47;3.20;;;;;;;18.44;95.38;100429.79;1699355;82;21095;-69
2022/09/23 09:12:25;;;;;;;4.47;2.83;;;;;;;18.45;95.73;100428.86;1721145;83;21087;-70
2022/09/23 09:15:05;;;;;;;6.55;3.52;;;;;;;18.21;93.53;100442.84;1695600;82;21065;-70
2022/09/23 09:18:02;;;;;;;6.17;2.95;;;;;;;18.27;93.92;100441.98;1703928;83;21554;-69
2022/09/23 09:20:40;;;;;;;5.40;3.58;;;;;;;18.26;94.98;100435.14;1692298;83;21062;-70
2022/09/23 09:23:18;;;;;;;5.10;3.02;;;;;;;18.13;99.71;100435.27;1696615;84;21071;-70
2022/09/23 09:25:58;;;;;;;3.77;2.77;;;;;;;17.87;100.00;100441.98;1701905;83;21075;-70
2022/09/23 09:28:32;;;;;;;3.85;2.77;;;;;;;17.92;100.00;100445.53;1699416;83;21028;-71
2022/09/23 09:31:02;;;;;;;3.67;2.92;;;;;;;17.89;99.08;100449.20;1701037;82;21048;-70
2022/09/23 09:33:46;;;;;;;6.00;3.15;;;;;;;17.94;98.92;100445.80;1683605;83;21128;-70
2022/09/23 09:36:37;;;;;;;4.00;3.10;;;;;;;18.04;98.49;100442.47;1699433;82;21655;-70
2022/09/23 09:39:05;;;;;;;3.87;3.10;;;;;;;18.16;97.69;100445.44;1705340;83;21131;-70
2022/09/23 09:41:32;;;;;;;4.40;3.22;;;;;;;18.38;94.65;100445.91;1715147;83;21310;-70
2022/09/23 09:44:04;;;;;;;5.33;3.17;;;;;;;18.43;96.36;100450.30;1700088;83;21324;-70
2022/09/23 09:46:53;;;;;;;6.33;3.50;;;;;;;18.29;98.67;100451.37;1704681;83;21557;-70
2022/09/23 09:49:32;;;;;;;4.60;3.20;;;;;;;18.25;100.00;100438.22;1687122;83;21069;-71
2022/09/23 09:52:28;;;;;;;4.28;3.10;;;;;;;18.46;97.65;100439.62;1696351;83;21110;-71
2022/09/23 09:55:14;;;;;;;3.52;3.22;;;;;;;18.51;97.41;100436.19;1715443;83;21047;-70
2022/09/23 09:57:54;;;;;;;4.83;3.35;;;;;;;18.37;96.03;100436.41;1695993;83;21114;-70
2022/09/23 10:00:29;;;;;;;4.35;3.60;;;;;;;18.73;94.58;100438.39;1688250;83;21042;-71
2022/09/23 10:03:03;;;;;;;3.20;2.85;;;;;;;19.20;91.96;100431.14;1695818;83;21107;-71
2022/09/23 10:05:47;;;;;;;3.98;2.70;;;;;;;19.21;87.03;100424.50;1702784;83;21087;-71
2022/09/23 10:08:31;;;;;;;6.08;3.30;;;;;;;19.20;85.12;100430.69;1692480;83;21648;-71
2022/09/23 10:11:07;;;;;;;5.37;3.60;;;;;;;18.96;87.40;100433.50;1693200;83;21203;-71
2022/09/23 10:13:35;;;;;;;4.47;3.37;;;;;;;18.85;90.32;100429.61;1697258;83;21050;-71
2022/09/23 10:16:04;;;;;;;7.47;3.35;;;;;;;18.92;91.48;100436.01;1704225;83;21099;-70
2022/09/23 10:18:39;;;;;;;5.05;3.92;;;;;;;18.55;90.75;100428.48;1701250;83;21043;-71
2022/09/23 10:21:15;;;;;;;6.58;4.72;;;;;;;18.15;93.50;100438.09;1682377;83;21138;-71
2022/09/23 10:23:53;;;;;;;5.95;4.80;;;;;;;18.07;94.36;100432.65;1703269;83;21062;-71
2022/09/23 10:26:39;;;;;;;4.83;4.28;;;;;;;18.18;95.03;100426.13;1699222;83;21157;-70
2022/09/23 10:29:29;;;;;;;5.25;3.72;;;;;;;18.30;94.07;100426.13;1691861;83;21091;-71
2022/09/23 10:32:26;;;;;;;4.95;4.10;;;;;;;18.50;91.10;100423.27;1682306;84;21320;-70
2022/09/23 10:35:04;;;;;;;3.45;3.10;;;;;;;18.72;87.52;100434.14;1692290;83;21043;-71
2022/09/23 10:37:39;;;;;;;3.52;3.22;;;;;;;18.44;85.30;100433.70;1714195;83;21606;-71
2022/09/23 10:49:29;;;;;;;6.30;3.80;;;;;;;18.15;80.81;100431.59;1701387;83;21042;-71
2022/09/23 10:52:35;;;;;;;4.78;3.50;;;;;;;18.20;81.18;100433.83;1705997;83;21147;-71
2022/09/23 10:55:27;;;;;;;5.12;4.00;;;;;;;18.04;81.69;100428.14;1690236;83;21097;-71
2022/09/23 10:58:30;;;;;;;6.60;4.15;;;;;;;18.35;82.58;100422.22;1683811;83;21081;-71
2022/09/23 11:01:35;;;;;;;6.33;3.02;;;;;;;18.28;80.77;100431.94;1685952;83;21055;-71
2022/09/23 11:04:25;;;;;;;3.27;2.67;;;;;;;18.36;73.92;100416.53;1710088;83;21039;-71
2022/09/23 11:07:34;;;;;;;5.05;3.10;;;;;;;18.71;69.71;100423.34;1700933;83;21032;-71
2022/09/23 11:10:32;;;;;;;7.37;3.60;;;;;;;18.74;68.69;100413.50;1687457;83;21105;-71
2022/09/23 11:13:25;;;;;;;4.05;2.58;;;;;;;18.77;67.49;100420.23;1695252;83;21055;-71
2022/09/23 11:16:07;;;;;;;2.20;1.65;;;;;;;19.02;67.81;100423.06;1677149;83;21086;-71
2022/09/23 11:19:01;;;;;;;1.92;1.67;;;;;;;18.98;63.51;100416.44;1710477;83;21550;-71
2022/09/23 11:21:45;;;;;;;3.85;1.92;;;;;;;19.00;64.36;100410.62;1668770;83;21098;-67
2022/09/23 11:24:27;;;;;;;;;;;;;;;18.92;66.01;100409.92;1704750;83;21571;-71
2022/09/23 11:27:25;;;;;;;1.67;1.52;;;;;;;19.03;63.65;100407.74;1712815;83;20113;-70
2022/09/23 11:30:12;;;;;;;2.22;1.25;;;;;;;18.85;62.63;100410.53;1686129;83;21039;-71
2022/09/23 11:33:06;;;;;;;2.47;1.37;;;;;;;18.94;62.48;100409.33;1705940;83;21116;-70
2022/09/23 11:35:49;;;;;;;2.72;1.67;;;;;;;19.07;62.88;100401.80;1699594;82;21107;-70
2022/09/23 11:38:33;;;;;;;2.02;1.20;;;;;;;19.19;64.46;100404.72;1705224;83;21177;-70
2022/09/23 11:41:08;;;;;;;1.40;1.30;;;;;;;19.11;62.18;100405.34;1705533;83;21626;-71
2022/09/23 11:43:38;;;;;;;1.75;1.50;;;;;;;18.84;60.54;100411.50;1697513;83;21098;-71
2022/09/23 11:46:14;;;;;;;1.60;1.50;;;;;;;19.16;62.65;100411.47;1696795;83;21243;-71
2022/09/23 11:48:48;;;;;;;2.42;1.50;;;;;;;19.08;59.46;100415.19;1699500;83;21394;-70
2022/09/23 11:51:42;;;;;;;3.12;1.70;;;;;;;19.21;59.91;100410.15;1697018;83;21625;-71
2022/09/23 11:54:20;;;;;;;3.93;1.90;;;;;;;19.19;59.13;100422.98;1692880;83;21102;-71
2022/09/23 11:56:53;;;;;;;2.60;1.67;;;;;;;19.05;61.45;100405.02;1699111;83;21172;-71
2022/09/23 11:59:38;;;;;;;3.10;1.52;;;;;;;19.16;60.33;100412.78;1672791;84;21120;-72
2022/09/23 12:02:22;;;;;;;1.92;1.57;;;;;;;19.23;60.20;100413.95;1690089;83;21069;-71
2022/09/23 12:04:55;;;;;;;;;;;;;;;19.11;59.22;100411.03;1720254;83;21085;-71